メインページ
METAR-TAF:

METAR-TAF

空港 :

ワシントン・ダレス国際空港

ワシントン州, バージニア州, アメリカ合衆国

緯度: 38-56-05N, 経度: 077-26-51W, 海抜: 95m

現時点の気象観測

当レポートは35分前の18:52(UTC)に作成
北/北西の風 16kt、最大20ktの突風を伴う
気温 28°C
湿度 66%
気圧 1009 hPa
視程: 16.1km
高度1800ftの雲はほとんどない
高度3000ftの千切れ雲あり
高度6500ftの千切れ雲あり

METAR: KIAD 181852Z 34016G20KT 10SM FEW018 BKN030 BKN065 28/21 A2979 RMK SLP084 T02780211

時間: 15:27 (19:27 UTC)

予報

当レポートは1時間46分前の17:41(UTC)に作成
予報は18日の 18時(UTC)から 19日の 24時(UTC)まで有効
北西の風 10kt、最大20ktの突風を伴う
視程: 10km
高度1500ftの千切れ雲あり
高度3000ftの曇り
18日の 2100時(UTC)から
北/北西の風 9kt
視程: 10km
高度4000ftの千切れ雲あり
高度7000ftの曇り
19日の 0100時(UTC)から
北/北西の風 7kt
視程: 10km
高度25000ftの雲は散在している
19日の 1400時(UTC)から
北/北西の風 10kt、最大18ktの突風を伴う
視程: 10km
高度2500ftの雲はほとんどない

TAF: KIAD 181741Z 1818/1924 31010G20KT P6SM BKN015 OVC030 FM182100 33009KT P6SM BKN040 OVC070 FM190100 34007KT P6SM SCT250 FM191400 34010G18KT P6SM FEW025

4,000以上の空港の気象観測と天気予報(METAR報とTAF報)

利用可能な観測所は地図上に黄色い丸と赤い丸で示す。

丸の上にカーソルを重ねると観測所名を参照できる。

次にクリックすると気象観測と天気予報を参照できる。

マップの切り替え:黒色「×」印の緑ボタンをクリックして拡大、「-」印の緑ボタンをクリックして縮小、緑色の三角印をクリックして隣りの地図に切り替え


METAR-TAF: